createdAt,value
2016-11-08T00:00:07.256Z,6.08
2016-11-08T00:01:07.258Z,6.14
2016-11-08T00:02:07.271Z,6.05
2016-11-08T00:03:07.291Z,5.94
2016-11-08T00:04:07.321Z,6.05
2016-11-08T00:05:07.003Z,5.98
2016-11-08T00:06:07.650Z,5.97
2016-11-08T00:07:07.028Z,5.73
2016-11-08T00:08:07.047Z,5.69
2016-11-08T00:09:07.372Z,5.73
2016-11-08T00:10:07.391Z,5.84
2016-11-08T00:11:07.084Z,5.9
2016-11-08T00:12:07.100Z,5.89
2016-11-08T00:13:07.118Z,5.9
2016-11-08T00:14:07.445Z,5.97
2016-11-08T00:15:07.456Z,5.94
2016-11-08T00:16:07.471Z,5.89
2016-11-08T00:17:07.497Z,5.89
2016-11-08T00:18:07.185Z,5.9
2016-11-08T00:19:07.832Z,5.87
2016-11-08T00:20:07.533Z,5.89
2016-11-08T00:21:07.248Z,5.93
2016-11-08T00:22:07.257Z,5.97
2016-11-08T00:23:07.916Z,5.93
2016-11-08T00:24:07.900Z,5.82
2016-11-08T00:25:07.283Z,5.73
2016-11-08T00:26:07.617Z,5.83
2016-11-08T00:27:07.942Z,5.89
2016-11-08T00:28:08.076Z,5.97
2016-11-08T00:29:07.346Z,5.89
2016-11-08T00:30:07.673Z,5.87
2016-11-08T00:31:07.688Z,5.75
2016-11-08T00:32:07.720Z,5.9
2016-11-08T00:33:08.031Z,5.8
2016-11-08T00:34:07.413Z,5.76
2016-11-08T00:35:07.745Z,5.69
2016-11-08T00:36:07.756Z,5.8
2016-11-08T00:37:07.774Z,5.73
2016-11-08T00:38:07.490Z,5.65
2016-11-08T00:39:08.118Z,5.64
2016-11-08T00:40:07.500Z,5.54
2016-11-08T00:41:07.515Z,5.61
2016-11-08T00:42:07.870Z,5.61
2016-11-08T00:43:07.859Z,5.65
2016-11-08T00:44:07.869Z,5.71
2016-11-08T00:45:07.887Z,5.65
2016-11-08T00:46:07.907Z,5.64
2016-11-08T00:47:07.920Z,5.82
2016-11-08T00:48:07.928Z,5.86
2016-11-08T00:49:07.626Z,5.86
2016-11-08T00:50:07.661Z,5.9
2016-11-08T00:51:08.287Z,5.94
2016-11-08T00:52:07.986Z,5.8
2016-11-08T00:53:08.034Z,5.76
2016-11-08T00:54:08.017Z,5.62
2016-11-08T00:55:08.343Z,5.65
2016-11-08T00:56:08.039Z,5.73
2016-11-08T00:57:08.381Z,5.75
2016-11-08T00:58:08.076Z,5.94
2016-11-08T00:59:07.772Z,5.91
2016-11-08T01:00:08.417Z,5.97
2016-11-08T01:01:08.183Z,5.93
2016-11-08T01:02:08.445Z,6.02
2016-11-08T01:03:08.142Z,6.04
2016-11-08T01:04:07.844Z,6.01
2016-11-08T01:05:07.851Z,6.11
2016-11-08T01:06:08.187Z,6.16
2016-11-08T01:07:07.901Z,6.07
2016-11-08T01:08:07.898Z,6.04
2016-11-08T01:09:08.542Z,6.11
2016-11-08T01:10:07.924Z,6.09
2016-11-08T01:11:08.576Z,5.98
2016-11-08T01:12:07.964Z,6.11
2016-11-08T01:13:08.603Z,6.02
2016-11-08T01:14:08.295Z,6.07
2016-11-08T01:15:07.995Z,6.04
2016-11-08T01:16:08.330Z,5.99
2016-11-08T01:17:08.343Z,5.94
2016-11-08T01:18:08.037Z,5.91
2016-11-08T01:19:08.386Z,5.86
2016-11-08T01:20:08.395Z,5.73
2016-11-08T01:21:08.090Z,5.86
2016-11-08T01:22:08.100Z,5.83
2016-11-08T01:23:08.116Z,5.9
2016-11-08T01:24:08.439Z,5.89
2016-11-08T01:25:08.771Z,5.93
2016-11-08T01:26:08.473Z,5.94
2016-11-08T01:27:08.164Z,5.98
2016-11-08T01:28:08.499Z,5.98
2016-11-08T01:29:08.513Z,5.97
2016-11-08T01:30:08.526Z,6.07
2016-11-08T01:31:08.853Z,6.02
2016-11-08T01:32:08.237Z,6.05
2016-11-08T01:33:08.256Z,6.01
2016-11-08T01:34:08.606Z,6.07
2016-11-08T01:35:08.919Z,5.99
2016-11-08T01:36:08.932Z,5.98
2016-11-08T01:37:08.312Z,6.08
2016-11-08T01:38:08.960Z,6.04
2016-11-08T01:39:08.660Z,6.08
2016-11-08T01:40:08.671Z,6.08
2016-11-08T01:41:08.685Z,6.04
2016-11-08T01:42:08.700Z,6.11
2016-11-08T01:43:09.023Z,6.16
2016-11-08T01:44:08.730Z,6.19
2016-11-08T01:45:08.425Z,6.09
2016-11-08T01:46:08.446Z,6.11
2016-11-08T01:47:08.773Z,6.05
2016-11-08T01:48:08.797Z,6.05
2016-11-08T01:49:08.803Z,6.05
2016-11-08T01:50:08.816Z,6.08
2016-11-08T01:51:08.825Z,6.08
2016-11-08T01:52:08.843Z,6.12
2016-11-08T01:53:08.859Z,6.14
2016-11-08T01:54:09.186Z,6.07
2016-11-08T01:55:08.884Z,6.14
2016-11-08T01:56:08.933Z,6.09
2016-11-08T01:57:08.602Z,6.01
2016-11-08T01:58:08.930Z,5.86
2016-11-08T01:59:08.951Z,5.87
2016-11-08T02:00:09.272Z,5.98
2016-11-08T02:01:09.008Z,6.08
2016-11-08T02:02:09.004Z,6.01
2016-11-08T02:03:09.020Z,6.02
2016-11-08T02:04:09.031Z,6.11
2016-11-08T02:05:09.349Z,6.01
2016-11-08T02:06:09.047Z,6.01
2016-11-08T02:07:09.059Z,6.02
2016-11-08T02:08:08.757Z,6.05
2016-11-08T02:09:09.087Z,6.12
2016-11-08T02:10:09.105Z,5.99
2016-11-08T02:11:09.111Z,5.98
2016-11-08T02:12:09.129Z,6.09
2016-11-08T02:13:09.144Z,5.91
2016-11-08T02:14:08.845Z,5.91
2016-11-08T02:15:09.488Z,5.91
2016-11-08T02:16:09.514Z,5.97
2016-11-08T02:17:08.892Z,6.02
2016-11-08T02:18:09.533Z,6.12
2016-11-08T02:19:09.229Z,6.12
2016-11-08T02:20:09.563Z,6.14
2016-11-08T02:21:09.572Z,6.08
2016-11-08T02:22:08.955Z,6.11
2016-11-08T02:23:09.287Z,6.11
2016-11-08T02:24:08.985Z,6.05
2016-11-08T02:25:09.314Z,6.02
2016-11-08T02:26:09.011Z,6.02
2016-11-08T02:27:09.028Z,6.04
2016-11-08T02:28:09.717Z,5.99
2016-11-08T02:29:09.375Z,6.01
2016-11-08T02:30:09.387Z,6.01
2016-11-08T02:31:09.401Z,6.02
2016-11-08T02:32:09.747Z,6.04
2016-11-08T02:33:09.433Z,6.01
2016-11-08T02:34:09.448Z,6.04
2016-11-08T02:35:09.461Z,6.05
2016-11-08T02:36:09.157Z,6.07
2016-11-08T02:37:09.175Z,6.01
2016-11-08T02:38:09.511Z,6.02
2016-11-08T02:39:09.201Z,6.01
2016-11-08T02:40:09.558Z,6.04
2016-11-08T02:41:09.231Z,6.01
2016-11-08T02:42:09.246Z,6.04
2016-11-08T02:43:09.580Z,5.91
2016-11-08T02:44:09.274Z,5.91
2016-11-08T02:45:09.604Z,5.99
2016-11-08T02:46:09.936Z,6.07
2016-11-08T02:47:09.630Z,6.02
2016-11-08T02:48:09.644Z,6.01
2016-11-08T02:49:09.662Z,6.12
2016-11-08T02:50:09.673Z,6.11
2016-11-08T02:51:10.003Z,6.05
2016-11-08T02:52:09.391Z,6.09
2016-11-08T02:53:09.404Z,6.09
2016-11-08T02:54:09.731Z,6.07
2016-11-08T02:55:10.067Z,6.07
2016-11-08T02:56:09.765Z,6.08
2016-11-08T02:57:09.772Z,5.99
2016-11-08T02:58:10.104Z,6.01
2016-11-08T02:59:09.804Z,6.08
2016-11-08T03:00:09.818Z,6.12
2016-11-08T03:01:09.527Z,6.05
2016-11-08T03:02:09.853Z,6.05
2016-11-08T03:03:10.181Z,6.19
2016-11-08T03:04:09.879Z,6.11
2016-11-08T03:05:09.911Z,6.11
2016-11-08T03:06:09.591Z,6.07
2016-11-08T03:07:09.921Z,6.12
2016-11-08T03:08:09.936Z,6.14
2016-11-08T03:09:10.262Z,6.01
2016-11-08T03:10:09.963Z,6.07
2016-11-08T03:11:09.660Z,6.04
2016-11-08T03:12:09.996Z,6.05
2016-11-08T03:13:09.692Z,6.11
2016-11-08T03:14:09.703Z,6.07
2016-11-08T03:15:09.719Z,6.08
2016-11-08T03:16:10.052Z,5.99
2016-11-08T03:17:10.065Z,6.01
2016-11-08T03:18:10.080Z,5.98
2016-11-08T03:19:10.406Z,6.12
2016-11-08T03:20:10.424Z,6.09
2016-11-08T03:21:10.436Z,6.08
2016-11-08T03:22:10.131Z,6.07
2016-11-08T03:23:10.150Z,6.08
2016-11-08T03:24:09.848Z,6.16
2016-11-08T03:25:10.180Z,6.08
2016-11-08T03:26:10.193Z,6.12
2016-11-08T03:27:09.888Z,6.08
2016-11-08T03:28:10.223Z,6.08
2016-11-08T03:29:09.919Z,6.09
2016-11-08T03:30:10.256Z,6.14
2016-11-08T03:31:10.263Z,6.14
2016-11-08T03:32:09.969Z,6.16
2016-11-08T03:33:10.314Z,6.11
2016-11-08T03:34:10.622Z,6.04
2016-11-08T03:35:10.323Z,5.98
2016-11-08T03:36:10.336Z,6.01
2016-11-08T03:37:10.051Z,6.04
2016-11-08T03:38:10.363Z,5.98
2016-11-08T03:39:10.081Z,5.99
2016-11-08T03:40:10.076Z,5.99
2016-11-08T03:41:10.094Z,6.08
2016-11-08T03:42:10.110Z,6.02
2016-11-08T03:43:10.440Z,6.05
2016-11-08T03:44:10.447Z,6.01
2016-11-08T03:45:10.464Z,5.91
2016-11-08T03:46:10.162Z,5.87
2016-11-08T03:47:10.491Z,5.9
2016-11-08T03:48:10.509Z,5.84
2016-11-08T03:49:10.205Z,5.89
2016-11-08T03:50:10.251Z,5.93
2016-11-08T03:51:10.551Z,5.97
2016-11-08T03:52:10.567Z,6.01
2016-11-08T03:53:10.265Z,5.98
2016-11-08T03:54:10.593Z,5.97
2016-11-08T03:55:10.290Z,5.93
2016-11-08T03:56:10.629Z,5.93
2016-11-08T03:57:10.640Z,5.97
2016-11-08T03:58:10.649Z,5.97
2016-11-08T03:59:10.672Z,5.94
2016-11-08T04:00:10.681Z,5.89
2016-11-08T04:01:10.724Z,5.87
2016-11-08T04:02:11.040Z,5.94
2016-11-08T04:03:10.734Z,5.83
2016-11-08T04:04:10.733Z,5.84
2016-11-08T04:05:10.432Z,5.79
2016-11-08T04:06:10.764Z,5.82
2016-11-08T04:07:10.461Z,5.86
2016-11-08T04:08:10.495Z,5.86
2016-11-08T04:09:10.499Z,5.76
2016-11-08T04:10:10.818Z,5.82
2016-11-08T04:11:10.830Z,5.86
2016-11-08T04:12:10.533Z,5.75
2016-11-08T04:13:10.555Z,5.76
2016-11-08T04:14:10.560Z,5.68
2016-11-08T04:15:10.890Z,5.62
2016-11-08T04:16:10.904Z,5.71
2016-11-08T04:17:10.920Z,5.68
2016-11-08T04:18:10.955Z,5.69
2016-11-08T04:19:10.945Z,5.71
2016-11-08T04:20:10.953Z,5.79
2016-11-08T04:21:10.974Z,5.72
2016-11-08T04:22:10.991Z,5.72
2016-11-08T04:23:11.315Z,5.71
2016-11-08T04:24:11.332Z,5.64
2016-11-08T04:25:11.027Z,5.68
2016-11-08T04:26:11.045Z,5.66
2016-11-08T04:27:11.054Z,5.43
2016-11-08T04:28:11.083Z,5.36
2016-11-08T04:29:11.100Z,5.44
2016-11-08T04:30:11.100Z,5.5
2016-11-08T04:31:11.108Z,5.38
2016-11-08T04:32:11.146Z,5.38
2016-11-08T04:33:11.139Z,5.32
2016-11-08T04:34:11.472Z,5.28
2016-11-08T04:35:11.484Z,5.36
2016-11-08T04:36:10.861Z,5.32
2016-11-08T04:37:11.199Z,5.41
2016-11-08T04:38:11.211Z,5.43
2016-11-08T04:39:10.914Z,5.39
2016-11-08T04:40:11.553Z,5.32
2016-11-08T04:41:10.933Z,5.3
2016-11-08T04:42:11.266Z,5.32
2016-11-08T04:43:10.974Z,5.33
2016-11-08T04:44:11.294Z,5.39
2016-11-08T04:45:10.989Z,5.23
2016-11-08T04:46:11.016Z,5.28
2016-11-08T04:47:11.334Z,5.2
2016-11-08T04:48:11.355Z,5.08
2016-11-08T04:49:11.363Z,5.12
2016-11-08T04:50:11.376Z,5.11
2016-11-08T04:51:11.073Z,5.2
2016-11-08T04:52:11.414Z,5.26
2016-11-08T04:53:11.100Z,5.26
2016-11-08T04:54:11.430Z,5.23
2016-11-08T04:55:11.126Z,5.23
2016-11-08T04:56:11.144Z,5.28
2016-11-08T04:57:11.167Z,5.3
2016-11-08T04:58:11.799Z,5.33
2016-11-08T04:59:11.815Z,5.41
2016-11-08T05:00:11.196Z,5.36
2016-11-08T05:01:11.533Z,5.36
2016-11-08T05:02:11.225Z,5.46
2016-11-08T05:03:11.584Z,5.41
2016-11-08T05:04:11.880Z,5.44
2016-11-08T05:05:11.894Z,5.44
2016-11-08T05:06:11.592Z,5.33
2016-11-08T05:07:11.611Z,5.38
2016-11-08T05:08:11.304Z,5.29
2016-11-08T05:09:11.317Z,5.21
2016-11-08T05:10:11.370Z,5.3
2016-11-08T05:11:11.990Z,5.25
2016-11-08T05:12:11.675Z,5.2
2016-11-08T05:13:12.004Z,5.25
2016-11-08T05:14:11.394Z,5.2
2016-11-08T05:15:12.034Z,5.29
2016-11-08T05:16:11.412Z,5.32
2016-11-08T05:17:11.426Z,5.25
2016-11-08T05:18:11.756Z,5.26
2016-11-08T05:19:11.459Z,5.3
2016-11-08T05:20:11.784Z,5.28
2016-11-08T05:21:11.491Z,5.32
2016-11-08T05:22:11.814Z,5.33
2016-11-08T05:23:11.840Z,5.32
2016-11-08T05:24:11.840Z,5.29
2016-11-08T05:25:11.856Z,5.39
2016-11-08T05:26:11.869Z,5.44
2016-11-08T05:27:12.200Z,5.39
2016-11-08T05:28:11.898Z,5.48
2016-11-08T05:29:12.226Z,5.44
2016-11-08T05:30:12.245Z,5.53
2016-11-08T05:31:11.619Z,5.53
2016-11-08T05:32:12.269Z,5.46
2016-11-08T05:33:11.649Z,5.46
2016-11-08T05:34:11.668Z,5.51
2016-11-08T05:35:11.679Z,5.43
2016-11-08T05:36:12.007Z,5.33
2016-11-08T05:37:12.030Z,5.29
2016-11-08T05:38:12.033Z,5.33
2016-11-08T05:39:12.049Z,5.32
2016-11-08T05:40:12.401Z,5.33
2016-11-08T05:41:12.095Z,5.39
2016-11-08T05:42:12.091Z,5.41
2016-11-08T05:43:12.103Z,5.46
2016-11-08T05:44:12.116Z,5.47
2016-11-08T05:45:12.130Z,5.38
2016-11-08T05:46:12.146Z,5.36
2016-11-08T05:47:12.492Z,5.26
2016-11-08T05:48:12.176Z,5.25
2016-11-08T05:49:12.188Z,5.28
2016-11-08T05:50:12.518Z,5.25
2016-11-08T05:51:12.217Z,5.25
2016-11-08T05:52:12.252Z,5.25
2016-11-08T05:53:12.243Z,5.11
2016-11-08T05:54:12.258Z,5.11
2016-11-08T05:55:12.584Z,5.26
2016-11-08T05:56:12.600Z,5.28
2016-11-08T05:57:11.984Z,5.36
2016-11-08T05:58:12.313Z,5.28
2016-11-08T05:59:12.375Z,5.33
2016-11-08T06:00:12.337Z,5.28
2016-11-08T06:01:12.347Z,5.25
2016-11-08T06:02:12.689Z,5.28
2016-11-08T06:03:12.064Z,5.33
2016-11-08T06:04:12.108Z,5.39
2016-11-08T06:05:12.094Z,5.38
2016-11-08T06:06:12.438Z,5.39
2016-11-08T06:07:12.118Z,5.35
2016-11-08T06:08:12.766Z,5.29
2016-11-08T06:09:12.487Z,5.15
2016-11-08T06:10:12.474Z,5.21
2016-11-08T06:11:12.172Z,5.26
2016-11-08T06:12:12.870Z,5.28
2016-11-08T06:13:12.514Z,5.21
2016-11-08T06:14:12.847Z,5.05
2016-11-08T06:15:12.224Z,5.15
2016-11-08T06:16:12.565Z,5.12
2016-11-08T06:17:12.893Z,5.18
2016-11-08T06:18:12.896Z,5.18
2016-11-08T06:19:12.599Z,5.23
2016-11-08T06:20:12.296Z,5.23
2016-11-08T06:21:12.625Z,5.1
2016-11-08T06:22:12.323Z,5.08
2016-11-08T06:23:12.968Z,5.05
2016-11-08T06:24:12.983Z,5.17
2016-11-08T06:25:12.362Z,5.29
2016-11-08T06:26:13.007Z,5.18
2016-11-08T06:27:12.708Z,5.04
2016-11-08T06:28:12.409Z,4.97
2016-11-08T06:29:12.734Z,4.9
2016-11-08T06:30:12.431Z,4.94
2016-11-08T06:31:13.094Z,5.07
2016-11-08T06:32:12.475Z,5.12
2016-11-08T06:33:12.486Z,5.05
2016-11-08T06:34:12.803Z,5.08
2016-11-08T06:35:13.067Z,5.04
2016-11-08T06:36:12.829Z,5.08
2016-11-08T06:37:12.844Z,5.12
2016-11-08T06:38:12.857Z,5.21
2016-11-08T06:39:12.870Z,5.23
2016-11-08T06:40:12.889Z,5.15
2016-11-08T06:41:12.920Z,5.02
2016-11-08T06:42:12.914Z,5.02
2016-11-08T06:43:27.500Z,5.1
2016-11-08T06:44:12.622Z,5.15
2016-11-08T06:45:13.314Z,5.07
2016-11-08T06:46:12.978Z,5.11
2016-11-08T06:47:12.674Z,5.08
2016-11-08T06:48:12.677Z,5.18
2016-11-08T06:49:13.011Z,5.2
2016-11-08T06:50:12.708Z,5.14
2016-11-08T06:51:13.049Z,5.21
2016-11-08T06:52:13.044Z,5.07
2016-11-08T06:53:13.382Z,5.12
2016-11-08T06:54:13.074Z,5.08
2016-11-08T06:55:13.094Z,5.11
2016-11-08T06:56:13.441Z,5.23
2016-11-08T06:57:12.800Z,5.3
2016-11-08T06:58:13.447Z,5.3
2016-11-08T06:59:13.150Z,5.32
2016-11-08T07:00:13.167Z,5.29
2016-11-08T07:01:12.856Z,5.29
2016-11-08T07:02:12.895Z,5.38
2016-11-08T07:03:13.199Z,5.41
2016-11-08T07:04:13.532Z,5.33
2016-11-08T07:05:13.543Z,5.36
2016-11-08T07:06:12.926Z,5.39
2016-11-08T07:07:12.946Z,5.54
2016-11-08T07:08:13.274Z,5.44
2016-11-08T07:09:13.632Z,5.57
2016-11-08T07:10:13.313Z,5.54
2016-11-08T07:11:13.325Z,5.51
2016-11-08T07:12:13.011Z,5.48
2016-11-08T07:13:13.339Z,5.51
2016-11-08T07:14:13.354Z,5.48
2016-11-08T07:15:13.370Z,5.48
2016-11-08T07:16:13.409Z,5.65
2016-11-08T07:17:13.089Z,5.65
2016-11-08T07:18:13.413Z,5.66
2016-11-08T07:19:13.427Z,5.73
2016-11-08T07:20:13.441Z,5.8
2016-11-08T07:21:13.452Z,5.83
2016-11-08T07:22:13.477Z,5.86
2016-11-08T07:23:13.480Z,5.99
2016-11-08T07:24:13.183Z,6.02
2016-11-08T07:25:13.510Z,6.08
2016-11-08T07:26:13.524Z,5.98
2016-11-08T07:27:13.859Z,6.04
2016-11-08T07:28:13.864Z,6.12
2016-11-08T07:29:13.250Z,6.08
2016-11-08T07:30:13.577Z,6.2
2016-11-08T07:31:13.594Z,6.12
2016-11-08T07:32:13.609Z,6.11
2016-11-08T07:33:13.940Z,6.19
2016-11-08T07:34:13.638Z,6.26
2016-11-08T07:35:13.653Z,6.26
2016-11-08T07:36:13.673Z,6.24
2016-11-08T07:37:13.678Z,6.31
2016-11-08T07:38:13.694Z,6.35
2016-11-08T07:39:13.395Z,6.42
2016-11-08T07:40:13.736Z,6.44
2016-11-08T07:41:14.061Z,6.46
2016-11-08T07:42:14.065Z,6.44
2016-11-08T07:43:13.454Z,6.39
2016-11-08T07:44:14.094Z,6.31
2016-11-08T07:45:13.793Z,6.31
2016-11-08T07:46:13.493Z,6.41
2016-11-08T07:47:13.824Z,6.48
2016-11-08T07:48:13.523Z,6.57
2016-11-08T07:49:13.849Z,6.56
2016-11-08T07:50:13.902Z,6.63
2016-11-08T07:51:14.198Z,6.66
2016-11-08T07:52:13.896Z,6.67
2016-11-08T07:53:13.910Z,6.77
2016-11-08T07:54:13.923Z,6.74
2016-11-08T07:55:13.934Z,6.81
2016-11-08T07:56:13.650Z,6.85
2016-11-08T07:57:13.969Z,6.84
2016-11-08T07:58:13.712Z,6.95
2016-11-08T07:59:13.686Z,6.92
2016-11-08T08:00:14.011Z,7.07
2016-11-08T08:01:14.044Z,7.1
2016-11-08T08:02:14.045Z,7.28
2016-11-08T08:03:14.085Z,7.21
2016-11-08T08:04:13.758Z,7.23
2016-11-08T08:05:14.095Z,7.29
2016-11-08T08:06:13.792Z,7.4
2016-11-08T08:07:14.113Z,7.48
2016-11-08T08:08:14.139Z,7.56
2016-11-08T08:09:14.147Z,7.63
2016-11-08T08:10:14.164Z,7.72
2016-11-08T08:11:13.860Z,7.77
2016-11-08T08:12:14.200Z,7.91
2016-11-08T08:13:13.895Z,7.97
2016-11-08T08:14:14.536Z,7.9
2016-11-08T08:15:14.236Z,8.12
2016-11-08T08:16:14.255Z,8.05
2016-11-08T08:17:14.586Z,8.1
2016-11-08T08:18:14.616Z,8.19
2016-11-08T08:19:14.638Z,8.18
2016-11-08T08:20:13.999Z,8.28
2016-11-08T08:21:14.326Z,8.36
2016-11-08T08:22:14.341Z,8.36
2016-11-08T08:23:14.360Z,8.28
2016-11-08T08:24:14.380Z,8.28
2016-11-08T08:25:14.388Z,8.27
2016-11-08T08:26:14.732Z,8.3
2016-11-08T08:27:14.425Z,8.34
2016-11-08T08:28:14.118Z,8.36
2016-11-08T08:29:14.769Z,8.37
2016-11-08T08:30:14.799Z,8.33
2016-11-08T08:31:14.166Z,8.41
2016-11-08T08:32:14.500Z,8.42
2016-11-08T08:33:14.196Z,8.44
2016-11-08T08:34:14.231Z,8.49
2016-11-08T08:35:14.241Z,8.49
2016-11-08T08:36:14.252Z,8.46
2016-11-08T08:37:14.267Z,8.56
2016-11-08T08:38:14.594Z,8.7
2016-11-08T08:39:14.294Z,8.64
2016-11-08T08:40:14.940Z,8.66
2016-11-08T08:41:14.327Z,8.73
2016-11-08T08:42:14.659Z,8.79
2016-11-08T08:43:14.993Z,8.79
2016-11-08T08:44:14.688Z,9.26
2016-11-08T08:45:14.703Z,9.59
2016-11-08T08:46:14.728Z,9.69
2016-11-08T08:47:14.739Z,9.56
2016-11-08T08:48:14.436Z,9.62
2016-11-08T08:49:14.455Z,9.54
2016-11-08T08:50:14.785Z,9.69
2016-11-08T08:51:15.117Z,9.76
2016-11-08T08:52:15.142Z,9.83
2016-11-08T08:53:15.164Z,9.87
2016-11-08T08:54:15.164Z,9.87
2016-11-08T08:55:14.863Z,9.98
2016-11-08T08:56:14.893Z,9.98
2016-11-08T08:57:15.215Z,9.99
2016-11-08T08:58:15.232Z,10.02
2016-11-08T08:59:14.932Z,9.97
2016-11-08T09:00:14.633Z,9.91
2016-11-08T09:01:14.964Z,9.92
2016-11-08T09:02:14.986Z,9.95
2016-11-08T09:03:15.318Z,10.04
2016-11-08T09:04:15.018Z,10.04
2016-11-08T09:05:15.031Z,10.16
2016-11-08T09:06:14.753Z,10.12
2016-11-08T09:07:15.384Z,10.23
2016-11-08T09:08:14.768Z,10.23
2016-11-08T09:09:15.097Z,10.25
2016-11-08T09:10:14.800Z,10.22
2016-11-08T09:11:15.132Z,10.16
2016-11-08T09:12:14.838Z,9.97
2016-11-08T09:13:14.852Z,9.8
2016-11-08T09:14:14.871Z,9.76
2016-11-08T09:15:14.914Z,9.73
2016-11-08T09:16:15.220Z,9.76
2016-11-08T09:17:15.233Z,9.74
2016-11-08T09:18:15.248Z,9.68
2016-11-08T09:19:14.952Z,9.56
2016-11-08T09:20:14.969Z,9.54
2016-11-08T09:21:15.301Z,9.59
2016-11-08T09:22:15.002Z,9.54
2016-11-08T09:23:15.047Z,9.46
2016-11-08T09:24:15.036Z,9.43
2016-11-08T09:25:15.366Z,9.4
2016-11-08T09:26:15.397Z,9.4
2016-11-08T09:27:15.714Z,9.4
2016-11-08T09:28:15.415Z,9.41
2016-11-08T09:29:15.120Z,9.41
2016-11-08T09:30:15.462Z,9.39
2016-11-08T09:31:15.462Z,9.59
2016-11-08T09:32:15.170Z,9.69
2016-11-08T09:33:15.200Z,9.82
2016-11-08T09:34:15.249Z,9.94
2016-11-08T09:35:15.528Z,9.92
2016-11-08T09:36:15.230Z,10.1
2016-11-08T09:37:15.877Z,10.23
2016-11-08T09:38:15.265Z,10.35
2016-11-08T09:39:15.308Z,10.53
2016-11-08T09:40:15.611Z,10.51
2016-11-08T09:41:15.315Z,10.61
2016-11-08T09:42:15.651Z,10.68
2016-11-08T09:43:15.665Z,10.86
2016-11-08T09:44:15.689Z,10.87
2016-11-08T09:45:16.008Z,10.81
2016-11-08T09:46:15.399Z,10.81
2016-11-08T09:47:15.418Z,10.82
2016-11-08T09:48:16.063Z,10.86
2016-11-08T09:49:15.451Z,10.86
2016-11-08T09:50:15.467Z,10.86
2016-11-08T09:51:15.483Z,10.87
2016-11-08T09:52:15.820Z,10.79
2016-11-08T09:53:15.832Z,10.69
2016-11-08T09:54:15.537Z,10.61
2016-11-08T09:55:15.563Z,10.61
2016-11-08T09:56:15.910Z,10.42
2016-11-08T09:57:15.905Z,10.26
2016-11-08T09:58:15.605Z,10.19
2016-11-08T09:59:15.955Z,10.17
2016-11-08T10:00:16.276Z,10.13
2016-11-08T10:01:16.034Z,10.25
2016-11-08T10:02:15.673Z,10.16
2016-11-08T10:03:16.335Z,10.22
2016-11-08T10:04:16.024Z,10.22
2016-11-08T10:05:16.355Z,10.3
2016-11-08T10:06:16.053Z,10.13
2016-11-08T10:07:16.088Z,10.23
2016-11-08T10:08:15.776Z,10.38
2016-11-08T10:09:16.141Z,10.49
2016-11-08T10:10:16.145Z,10.51
2016-11-08T10:11:16.152Z,10.41
2016-11-08T10:12:15.847Z,10.54
2016-11-08T10:13:15.859Z,10.34
2016-11-08T10:14:16.195Z,10.4
2016-11-08T10:15:16.210Z,10.35
2016-11-08T10:16:16.542Z,10.46
2016-11-08T10:17:15.930Z,10.54
2016-11-08T10:18:16.577Z,10.61
2016-11-08T10:19:16.282Z,10.6
2016-11-08T10:20:16.298Z,10.49
2016-11-08T10:21:16.359Z,10.44
2016-11-08T10:22:16.331Z,10.41
2016-11-08T10:23:16.352Z,10.35
2016-11-08T10:24:16.364Z,10.28
2016-11-08T10:25:16.712Z,10.26
2016-11-08T10:26:16.714Z,10.25
2016-11-08T10:27:16.101Z,10.41
2016-11-08T10:28:16.463Z,10.42
2016-11-08T10:29:16.133Z,10.41
2016-11-08T10:30:16.779Z,10.44
2016-11-08T10:31:16.574Z,10.51
2016-11-08T10:32:16.186Z,10.51
2016-11-08T10:33:16.834Z,10.51
2016-11-08T10:34:16.848Z,10.56
2016-11-08T10:35:16.240Z,10.46
2016-11-08T10:36:16.579Z,10.4
2016-11-08T10:37:16.269Z,10.4
2016-11-08T10:38:16.610Z,10.33
2016-11-08T10:39:16.952Z,10.3
2016-11-08T10:40:16.641Z,10.07
2016-11-08T10:41:16.651Z,9.98
2016-11-08T10:42:16.674Z,9.98
2016-11-08T10:43:17.018Z,9.94
2016-11-08T10:44:16.713Z,9.99
2016-11-08T10:45:17.037Z,9.98
2016-11-08T10:46:16.742Z,9.94
2016-11-08T10:47:16.769Z,9.91
2016-11-08T10:48:17.087Z,9.87
2016-11-08T10:49:16.472Z,9.91
2016-11-08T10:50:17.119Z,9.91
2016-11-08T10:51:17.142Z,9.83
2016-11-08T10:52:16.522Z,9.68
2016-11-08T10:53:16.537Z,9.66
2016-11-08T10:54:16.870Z,9.73
2016-11-08T10:55:16.570Z,9.87
2016-11-08T10:56:17.221Z,9.95
2016-11-08T10:57:16.918Z,10.01
2016-11-08T10:58:16.935Z,10.17
2016-11-08T10:59:17.272Z,10.3
2016-11-08T11:00:16.971Z,10.44
2016-11-08T11:01:16.989Z,10.46
2016-11-08T11:02:16.686Z,10.48
2016-11-08T11:03:16.706Z,10.69
2016-11-08T11:04:17.042Z,10.87
2016-11-08T11:05:16.740Z,11.05
2016-11-08T11:06:16.758Z,11.08
2016-11-08T11:07:17.091Z,11.12
2016-11-08T11:08:17.106Z,11.29
2016-11-08T11:09:17.130Z,11.32
2016-11-08T11:10:17.144Z,11.37
2016-11-08T11:11:16.850Z,11.48
2016-11-08T11:12:17.180Z,11.5
2016-11-08T11:13:17.527Z,11.57
2016-11-08T11:14:17.217Z,11.52
2016-11-08T11:15:17.234Z,11.5
2016-11-08T11:16:16.944Z,11.33
2016-11-08T11:17:17.274Z,11.23
2016-11-08T11:18:17.597Z,11.23
2016-11-08T11:19:17.303Z,11.18
2016-11-08T11:20:17.003Z,11.11
2016-11-08T11:21:17.342Z,11.12
2016-11-08T11:22:17.363Z,11.19
2016-11-08T11:23:17.723Z,11.08
2016-11-08T11:24:17.396Z,11.08
2016-11-08T11:25:17.100Z,11.11
2016-11-08T11:26:17.745Z,11.05
2016-11-08T11:27:17.133Z,10.74
2016-11-08T11:28:17.475Z,10.61
2016-11-08T11:29:17.501Z,10.54
2016-11-08T11:30:17.189Z,10.61
2016-11-08T11:31:17.204Z,10.67
2016-11-08T11:32:17.557Z,10.49
2016-11-08T11:33:17.553Z,10.49
2016-11-08T11:34:17.573Z,10.51
2016-11-08T11:35:17.593Z,10.51
2016-11-08T11:36:17.625Z,10.51
2016-11-08T11:37:17.938Z,10.56
2016-11-08T11:38:17.641Z,10.48
2016-11-08T11:39:17.363Z,10.53
2016-11-08T11:40:17.689Z,10.61
2016-11-08T11:41:17.388Z,10.72
2016-11-08T11:42:18.028Z,10.68
2016-11-08T11:43:17.412Z,10.59
2016-11-08T11:44:18.062Z,10.54
2016-11-08T11:45:18.081Z,10.53
2016-11-08T11:46:17.783Z,10.37
2016-11-08T11:47:17.484Z,10.26
2016-11-08T11:48:17.826Z,10.42
2016-11-08T11:49:17.831Z,10.35
2016-11-08T11:50:17.536Z,10.44
2016-11-08T11:51:17.554Z,10.63
2016-11-08T11:52:17.883Z,10.72
2016-11-08T11:53:17.901Z,10.75
2016-11-08T11:54:17.925Z,10.86
2016-11-08T11:55:18.252Z,10.86
2016-11-08T11:56:17.953Z,10.89
2016-11-08T11:57:18.291Z,10.87
2016-11-08T11:58:18.303Z,10.87
2016-11-08T11:59:18.323Z,10.9
2016-11-08T12:00:17.710Z,10.86
2016-11-08T12:01:17.726Z,10.94
2016-11-08T12:02:18.063Z,11.08
2016-11-08T12:03:17.765Z,11.17
2016-11-08T12:04:17.780Z,11.19
2016-11-08T12:05:18.113Z,11.25
2016-11-08T12:06:18.139Z,11.35
2016-11-08T12:07:17.831Z,11.4
2016-11-08T12:08:18.167Z,11.41
2016-11-08T12:09:18.191Z,11.48
2016-11-08T12:10:17.887Z,11.48
2016-11-08T12:11:18.219Z,11.5
2016-11-08T12:12:17.922Z,11.62
2016-11-08T12:13:18.567Z,11.8
2016-11-08T12:14:18.624Z,11.78
2016-11-08T12:15:18.604Z,11.84
2016-11-08T12:16:18.635Z,12.02
2016-11-08T12:17:18.329Z,11.94
2016-11-08T12:18:18.031Z,12.07
2016-11-08T12:19:18.681Z,12.12
2016-11-08T12:20:18.066Z,12.06
2016-11-08T12:21:18.718Z,12.12
2016-11-08T12:22:18.104Z,12.13
2016-11-08T12:23:18.751Z,12.12
2016-11-08T12:24:18.473Z,12.03
2016-11-08T12:25:18.788Z,11.84
2016-11-08T12:26:18.806Z,11.84
2016-11-08T12:27:18.544Z,11.72
2016-11-08T12:28:18.546Z,11.81
2016-11-08T12:29:18.862Z,11.7
2016-11-08T12:30:18.566Z,11.68
2016-11-08T12:31:18.288Z,11.78
2016-11-08T12:32:18.609Z,11.8
2016-11-08T12:33:18.617Z,11.81
2016-11-08T12:34:18.327Z,11.91
2016-11-08T12:35:18.338Z,11.83
2016-11-08T12:36:18.931Z,11.9
2016-11-08T12:37:19.006Z,11.86
2016-11-08T12:38:18.714Z,11.77
2016-11-08T12:39:18.728Z,11.66
2016-11-08T12:40:18.767Z,11.78
2016-11-08T12:41:18.461Z,11.73
2016-11-08T12:42:18.467Z,11.73
2016-11-08T12:43:19.123Z,11.8
2016-11-08T12:44:18.827Z,11.51
2016-11-08T12:45:18.837Z,11.54
2016-11-08T12:46:18.542Z,11.41
2016-11-08T12:47:18.895Z,11.47
2016-11-08T12:48:18.587Z,11.43
2016-11-08T12:49:18.912Z,11.4
2016-11-08T12:50:18.934Z,11.35
2016-11-08T12:51:18.631Z,11.45
2016-11-08T12:52:18.649Z,11.47
2016-11-08T12:53:18.699Z,11.55
2016-11-08T12:54:19.316Z,11.65
2016-11-08T12:55:19.025Z,11.65
2016-11-08T12:56:18.745Z,11.72
2016-11-08T12:57:19.058Z,11.84
2016-11-08T12:58:18.756Z,11.69
2016-11-08T12:59:19.093Z,11.66
2016-11-08T13:00:19.109Z,11.87
2016-11-08T13:01:19.129Z,12.03
2016-11-08T13:02:19.150Z,11.94
2016-11-08T13:03:34.055Z,12.18
2016-11-08T13:04:19.201Z,12.18
2016-11-08T13:05:19.207Z,12.24
2016-11-08T13:06:18.906Z,12.28
2016-11-08T13:07:19.554Z,12.29
2016-11-08T13:08:19.614Z,12.37
2016-11-08T13:09:19.275Z,12.46
2016-11-08T13:10:19.292Z,12.45
2016-11-08T13:11:19.000Z,12.54
2016-11-08T13:12:19.333Z,12.65
2016-11-08T13:13:19.039Z,12.58